sensor_id;sensor_type;location;lat;lon;timestamp;P1;durP1;ratioP1;P2;durP2;ratioP2
22973;SDS011;11653;50.848;4.584;2023-08-21T00:02:20;10.53;;;2.20;;
22973;SDS011;11653;50.848;4.584;2023-08-21T00:04:45;6.17;;;2.00;;
22973;SDS011;11653;50.848;4.584;2023-08-21T00:07:12;10.00;;;2.43;;
22973;SDS011;11653;50.848;4.584;2023-08-21T00:09:37;4.07;;;2.00;;
22973;SDS011;11653;50.848;4.584;2023-08-21T00:12:03;7.87;;;1.93;;
22973;SDS011;11653;50.848;4.584;2023-08-21T00:14:29;5.47;;;1.80;;
22973;SDS011;11653;50.848;4.584;2023-08-21T00:16:55;6.60;;;2.30;;
22973;SDS011;11653;50.848;4.584;2023-08-21T00:19:21;6.53;;;2.53;;
22973;SDS011;11653;50.848;4.584;2023-08-21T00:21:46;10.87;;;2.77;;
22973;SDS011;11653;50.848;4.584;2023-08-21T00:24:12;5.33;;;2.00;;
22973;SDS011;11653;50.848;4.584;2023-08-21T00:26:38;9.03;;;2.30;;
22973;SDS011;11653;50.848;4.584;2023-08-21T00:29:03;9.30;;;2.47;;
22973;SDS011;11653;50.848;4.584;2023-08-21T00:31:29;7.93;;;2.00;;
22973;SDS011;11653;50.848;4.584;2023-08-21T00:33:55;6.33;;;1.97;;
22973;SDS011;11653;50.848;4.584;2023-08-21T00:36:20;8.70;;;2.20;;
22973;SDS011;11653;50.848;4.584;2023-08-21T00:38:46;8.83;;;2.57;;
22973;SDS011;11653;50.848;4.584;2023-08-21T00:41:13;8.53;;;2.33;;
22973;SDS011;11653;50.848;4.584;2023-08-21T00:43:38;4.97;;;2.23;;
22973;SDS011;11653;50.848;4.584;2023-08-21T00:46:04;7.97;;;2.30;;
22973;SDS011;11653;50.848;4.584;2023-08-21T00:48:30;9.67;;;2.70;;
22973;SDS011;11653;50.848;4.584;2023-08-21T00:50:57;7.17;;;2.43;;
22973;SDS011;11653;50.848;4.584;2023-08-21T00:53:23;8.60;;;2.30;;
22973;SDS011;11653;50.848;4.584;2023-08-21T00:55:49;7.07;;;2.40;;
22973;SDS011;11653;50.848;4.584;2023-08-21T00:58:15;9.17;;;2.10;;
22973;SDS011;11653;50.848;4.584;2023-08-21T01:00:43;9.40;;;2.50;;
22973;SDS011;11653;50.848;4.584;2023-08-21T01:03:10;9.17;;;2.57;;
22973;SDS011;11653;50.848;4.584;2023-08-21T01:05:36;8.90;;;2.37;;
22973;SDS011;11653;50.848;4.584;2023-08-21T01:10:33;10.97;;;2.33;;
22973;SDS011;11653;50.848;4.584;2023-08-21T01:16:03;8.40;;;2.30;;
22973;SDS011;11653;50.848;4.584;2023-08-21T01:18:31;5.50;;;1.97;;
22973;SDS011;11653;50.848;4.584;2023-08-21T01:20:59;11.10;;;2.37;;
22973;SDS011;11653;50.848;4.584;2023-08-21T01:23:29;11.83;;;2.73;;
22973;SDS011;11653;50.848;4.584;2023-08-21T01:25:55;6.00;;;2.13;;
22973;SDS011;11653;50.848;4.584;2023-08-21T01:28:20;5.60;;;2.03;;
22973;SDS011;11653;50.848;4.584;2023-08-21T01:30:46;8.60;;;2.47;;
22973;SDS011;11653;50.848;4.584;2023-08-21T01:33:15;9.10;;;2.67;;
22973;SDS011;11653;50.848;4.584;2023-08-21T01:35:42;7.23;;;2.33;;
22973;SDS011;11653;50.848;4.584;2023-08-21T01:38:08;9.63;;;2.50;;
22973;SDS011;11653;50.848;4.584;2023-08-21T01:40:34;9.20;;;2.40;;
22973;SDS011;11653;50.848;4.584;2023-08-21T01:42:59;7.77;;;2.83;;
22973;SDS011;11653;50.848;4.584;2023-08-21T01:45:25;5.37;;;2.40;;
22973;SDS011;11653;50.848;4.584;2023-08-21T01:47:51;5.97;;;2.83;;
22973;SDS011;11653;50.848;4.584;2023-08-21T01:50:17;9.50;;;2.57;;
22973;SDS011;11653;50.848;4.584;2023-08-21T01:52:42;6.33;;;2.57;;
22973;SDS011;11653;50.848;4.584;2023-08-21T01:55:08;8.27;;;2.50;;
22973;SDS011;11653;50.848;4.584;2023-08-21T01:57:35;8.70;;;2.50;;
22973;SDS011;11653;50.848;4.584;2023-08-21T02:00:01;6.63;;;2.10;;
22973;SDS011;11653;50.848;4.584;2023-08-21T02:02:29;7.50;;;1.90;;
22973;SDS011;11653;50.848;4.584;2023-08-21T02:04:55;9.47;;;2.70;;
22973;SDS011;11653;50.848;4.584;2023-08-21T02:07:20;7.00;;;2.47;;
22973;SDS011;11653;50.848;4.584;2023-08-21T02:09:46;7.50;;;2.53;;
22973;SDS011;11653;50.848;4.584;2023-08-21T02:12:12;8.23;;;2.83;;
22973;SDS011;11653;50.848;4.584;2023-08-21T02:14:37;5.77;;;2.43;;
22973;SDS011;11653;50.848;4.584;2023-08-21T02:17:03;7.37;;;2.50;;
22973;SDS011;11653;50.848;4.584;2023-08-21T02:19:30;7.40;;;2.83;;
22973;SDS011;11653;50.848;4.584;2023-08-21T02:21:56;8.03;;;2.40;;
22973;SDS011;11653;50.848;4.584;2023-08-21T02:24:21;6.43;;;2.20;;
22973;SDS011;11653;50.848;4.584;2023-08-21T02:26:47;9.40;;;2.77;;
22973;SDS011;11653;50.848;4.584;2023-08-21T02:29:12;7.97;;;2.23;;
22973;SDS011;11653;50.848;4.584;2023-08-21T02:31:38;5.73;;;2.30;;
22973;SDS011;11653;50.848;4.584;2023-08-21T02:34:04;8.03;;;2.73;;
22973;SDS011;11653;50.848;4.584;2023-08-21T02:36:30;6.13;;;2.47;;
22973;SDS011;11653;50.848;4.584;2023-08-21T02:38:55;9.47;;;2.40;;
22973;SDS011;11653;50.848;4.584;2023-08-21T02:41:21;5.03;;;2.40;;
22973;SDS011;11653;50.848;4.584;2023-08-21T02:43:47;10.70;;;3.27;;
22973;SDS011;11653;50.848;4.584;2023-08-21T02:46:12;8.70;;;2.90;;
22973;SDS011;11653;50.848;4.584;2023-08-21T02:48:38;6.60;;;2.73;;
22973;SDS011;11653;50.848;4.584;2023-08-21T02:51:04;5.07;;;2.37;;
22973;SDS011;11653;50.848;4.584;2023-08-21T02:53:29;8.53;;;2.70;;
22973;SDS011;11653;50.848;4.584;2023-08-21T02:55:55;8.10;;;3.13;;
22973;SDS011;11653;50.848;4.584;2023-08-21T02:58:20;9.23;;;2.60;;
22973;SDS011;11653;50.848;4.584;2023-08-21T03:00:46;13.17;;;3.30;;
22973;SDS011;11653;50.848;4.584;2023-08-21T03:03:12;9.77;;;2.70;;
22973;SDS011;11653;50.848;4.584;2023-08-21T03:05:38;7.90;;;2.80;;
22973;SDS011;11653;50.848;4.584;2023-08-21T03:08:03;7.37;;;2.97;;
22973;SDS011;11653;50.848;4.584;2023-08-21T03:10:29;6.23;;;2.70;;
22973;SDS011;11653;50.848;4.584;2023-08-21T03:12:58;9.40;;;2.80;;
22973;SDS011;11653;50.848;4.584;2023-08-21T03:15:24;9.17;;;3.07;;
22973;SDS011;11653;50.848;4.584;2023-08-21T03:17:50;4.77;;;2.40;;
22973;SDS011;11653;50.848;4.584;2023-08-21T03:20:15;6.43;;;3.60;;
22973;SDS011;11653;50.848;4.584;2023-08-21T03:22:42;7.10;;;2.97;;
22973;SDS011;11653;50.848;4.584;2023-08-21T03:25:08;7.73;;;2.70;;
22973;SDS011;11653;50.848;4.584;2023-08-21T03:27:34;7.00;;;2.83;;
22973;SDS011;11653;50.848;4.584;2023-08-21T03:30:05;7.17;;;2.67;;
22973;SDS011;11653;50.848;4.584;2023-08-21T03:32:32;8.03;;;2.70;;
22973;SDS011;11653;50.848;4.584;2023-08-21T03:34:58;12.53;;;3.10;;
22973;SDS011;11653;50.848;4.584;2023-08-21T03:37:24;7.17;;;2.57;;
22973;SDS011;11653;50.848;4.584;2023-08-21T03:39:49;9.97;;;3.33;;
22973;SDS011;11653;50.848;4.584;2023-08-21T03:42:15;12.07;;;2.93;;
22973;SDS011;11653;50.848;4.584;2023-08-21T03:44:41;8.47;;;2.50;;
22973;SDS011;11653;50.848;4.584;2023-08-21T03:47:06;8.77;;;2.67;;
22973;SDS011;11653;50.848;4.584;2023-08-21T03:49:32;8.70;;;3.00;;
22973;SDS011;11653;50.848;4.584;2023-08-21T03:51:58;11.90;;;3.10;;
22973;SDS011;11653;50.848;4.584;2023-08-21T03:54:24;12.33;;;3.00;;
22973;SDS011;11653;50.848;4.584;2023-08-21T03:56:49;11.83;;;3.53;;
22973;SDS011;11653;50.848;4.584;2023-08-21T03:59:15;7.33;;;3.00;;
22973;SDS011;11653;50.848;4.584;2023-08-21T04:01:41;7.77;;;2.87;;
22973;SDS011;11653;50.848;4.584;2023-08-21T04:04:06;5.53;;;2.57;;
22973;SDS011;11653;50.848;4.584;2023-08-21T04:06:32;10.80;;;3.30;;
22973;SDS011;11653;50.848;4.584;2023-08-21T04:08:57;7.10;;;3.47;;
22973;SDS011;11653;50.848;4.584;2023-08-21T04:11:23;7.03;;;2.80;;
22973;SDS011;11653;50.848;4.584;2023-08-21T04:13:49;5.53;;;2.83;;
22973;SDS011;11653;50.848;4.584;2023-08-21T04:16:14;7.67;;;3.20;;
22973;SDS011;11653;50.848;4.584;2023-08-21T04:18:42;7.87;;;3.27;;
22973;SDS011;11653;50.848;4.584;2023-08-21T04:21:08;7.77;;;2.80;;
22973;SDS011;11653;50.848;4.584;2023-08-21T04:23:35;7.80;;;3.03;;
22973;SDS011;11653;50.848;4.584;2023-08-21T04:26:01;8.77;;;3.30;;
22973;SDS011;11653;50.848;4.584;2023-08-21T04:28:29;8.13;;;3.13;;
22973;SDS011;11653;50.848;4.584;2023-08-21T04:30:55;7.80;;;3.03;;
22973;SDS011;11653;50.848;4.584;2023-08-21T04:33:23;8.53;;;2.80;;
22973;SDS011;11653;50.848;4.584;2023-08-21T04:35:50;8.87;;;3.33;;
22973;SDS011;11653;50.848;4.584;2023-08-21T04:38:15;8.20;;;3.47;;
22973;SDS011;11653;50.848;4.584;2023-08-21T04:40:41;8.00;;;3.13;;
22973;SDS011;11653;50.848;4.584;2023-08-21T04:43:06;11.93;;;3.40;;
22973;SDS011;11653;50.848;4.584;2023-08-21T04:45:32;7.67;;;3.40;;
22973;SDS011;11653;50.848;4.584;2023-08-21T04:47:58;10.03;;;3.37;;
22973;SDS011;11653;50.848;4.584;2023-08-21T04:50:24;6.87;;;3.10;;
22973;SDS011;11653;50.848;4.584;2023-08-21T04:52:49;7.43;;;3.20;;
22973;SDS011;11653;50.848;4.584;2023-08-21T04:55:15;8.10;;;2.80;;
22973;SDS011;11653;50.848;4.584;2023-08-21T04:57:41;10.97;;;4.10;;
22973;SDS011;11653;50.848;4.584;2023-08-21T05:00:07;11.03;;;3.40;;
22973;SDS011;11653;50.848;4.584;2023-08-21T05:02:34;9.97;;;3.30;;
22973;SDS011;11653;50.848;4.584;2023-08-21T05:05:00;8.03;;;3.93;;
22973;SDS011;11653;50.848;4.584;2023-08-21T05:07:25;9.67;;;3.60;;
22973;SDS011;11653;50.848;4.584;2023-08-21T05:09:52;6.97;;;2.93;;
22973;SDS011;11653;50.848;4.584;2023-08-21T05:12:17;8.97;;;3.20;;
22973;SDS011;11653;50.848;4.584;2023-08-21T05:14:43;6.10;;;3.30;;
22973;SDS011;11653;50.848;4.584;2023-08-21T05:17:09;9.33;;;3.30;;
22973;SDS011;11653;50.848;4.584;2023-08-21T05:19:34;8.67;;;3.43;;
22973;SDS011;11653;50.848;4.584;2023-08-21T05:22:00;14.43;;;3.50;;
22973;SDS011;11653;50.848;4.584;2023-08-21T05:24:26;8.80;;;2.97;;
22973;SDS011;11653;50.848;4.584;2023-08-21T05:26:51;8.57;;;3.20;;
22973;SDS011;11653;50.848;4.584;2023-08-21T05:29:17;4.93;;;2.30;;
22973;SDS011;11653;50.848;4.584;2023-08-21T05:31:42;8.60;;;2.60;;
22973;SDS011;11653;50.848;4.584;2023-08-21T05:34:08;5.67;;;2.40;;
22973;SDS011;11653;50.848;4.584;2023-08-21T05:36:34;12.67;;;2.73;;
22973;SDS011;11653;50.848;4.584;2023-08-21T05:39:02;8.43;;;2.27;;
22973;SDS011;11653;50.848;4.584;2023-08-21T05:41:30;10.53;;;2.10;;
22973;SDS011;11653;50.848;4.584;2023-08-21T05:43:57;8.40;;;2.53;;
22973;SDS011;11653;50.848;4.584;2023-08-21T05:46:22;9.53;;;2.17;;
22973;SDS011;11653;50.848;4.584;2023-08-21T05:48:48;6.47;;;2.00;;
22973;SDS011;11653;50.848;4.584;2023-08-21T05:51:14;7.17;;;2.20;;
22973;SDS011;11653;50.848;4.584;2023-08-21T05:53:39;12.70;;;2.60;;
22973;SDS011;11653;50.848;4.584;2023-08-21T05:56:05;6.73;;;1.80;;
22973;SDS011;11653;50.848;4.584;2023-08-21T05:58:30;7.97;;;2.00;;
22973;SDS011;11653;50.848;4.584;2023-08-21T06:00:58;6.37;;;2.50;;
22973;SDS011;11653;50.848;4.584;2023-08-21T06:03:24;11.93;;;2.53;;
22973;SDS011;11653;50.848;4.584;2023-08-21T06:05:49;6.15;;;1.98;;
22973;SDS011;11653;50.848;4.584;2023-08-21T06:08:15;7.83;;;2.27;;
22973;SDS011;11653;50.848;4.584;2023-08-21T06:10:41;6.47;;;2.10;;
22973;SDS011;11653;50.848;4.584;2023-08-21T06:13:07;7.28;;;2.22;;
22973;SDS011;11653;50.848;4.584;2023-08-21T06:15:33;9.93;;;2.83;;
22973;SDS011;11653;50.848;4.584;2023-08-21T06:17:58;7.82;;;2.28;;
22973;SDS011;11653;50.848;4.584;2023-08-21T06:20:25;9.25;;;2.63;;
22973;SDS011;11653;50.848;4.584;2023-08-21T06:22:51;21.17;;;3.47;;
22973;SDS011;11653;50.848;4.584;2023-08-21T06:25:16;9.23;;;2.80;;
22973;SDS011;11653;50.848;4.584;2023-08-21T06:27:44;16.13;;;3.88;;
22973;SDS011;11653;50.848;4.584;2023-08-21T06:30:10;9.13;;;3.10;;
22973;SDS011;11653;50.848;4.584;2023-08-21T06:32:36;13.10;;;3.40;;
22973;SDS011;11653;50.848;4.584;2023-08-21T06:35:01;11.10;;;2.73;;
22973;SDS011;11653;50.848;4.584;2023-08-21T06:37:27;10.47;;;3.33;;
22973;SDS011;11653;50.848;4.584;2023-08-21T06:39:53;13.27;;;3.03;;
22973;SDS011;11653;50.848;4.584;2023-08-21T06:42:18;11.67;;;3.23;;
22973;SDS011;11653;50.848;4.584;2023-08-21T06:44:44;11.70;;;3.07;;
22973;SDS011;11653;50.848;4.584;2023-08-21T06:47:09;11.80;;;3.57;;
22973;SDS011;11653;50.848;4.584;2023-08-21T06:49:35;12.03;;;3.40;;
22973;SDS011;11653;50.848;4.584;2023-08-21T06:52:01;12.68;;;3.70;;
22973;SDS011;11653;50.848;4.584;2023-08-21T06:54:28;13.23;;;3.20;;
22973;SDS011;11653;50.848;4.584;2023-08-21T06:56:54;10.40;;;3.05;;
22973;SDS011;11653;50.848;4.584;2023-08-21T06:59:20;10.05;;;2.80;;
22973;SDS011;11653;50.848;4.584;2023-08-21T07:01:45;11.73;;;2.78;;
22973;SDS011;11653;50.848;4.584;2023-08-21T07:04:11;14.50;;;3.25;;
22973;SDS011;11653;50.848;4.584;2023-08-21T07:06:37;13.57;;;3.35;;
22973;SDS011;11653;50.848;4.584;2023-08-21T07:09:02;10.52;;;3.40;;
22973;SDS011;11653;50.848;4.584;2023-08-21T07:11:28;10.35;;;3.45;;
22973;SDS011;11653;50.848;4.584;2023-08-21T07:13:54;12.50;;;3.05;;
22973;SDS011;11653;50.848;4.584;2023-08-21T07:16:20;14.38;;;3.05;;
22973;SDS011;11653;50.848;4.584;2023-08-21T07:18:46;11.95;;;3.40;;
22973;SDS011;11653;50.848;4.584;2023-08-21T07:21:12;12.43;;;2.80;;
22973;SDS011;11653;50.848;4.584;2023-08-21T07:23:37;18.83;;;3.78;;
22973;SDS011;11653;50.848;4.584;2023-08-21T07:26:03;14.23;;;3.90;;
22973;SDS011;11653;50.848;4.584;2023-08-21T07:28:32;14.05;;;3.17;;
22973;SDS011;11653;50.848;4.584;2023-08-21T07:30:57;12.35;;;3.15;;
22973;SDS011;11653;50.848;4.584;2023-08-21T07:33:26;8.48;;;2.90;;
22973;SDS011;11653;50.848;4.584;2023-08-21T07:36:05;10.73;;;2.88;;
22973;SDS011;11653;50.848;4.584;2023-08-21T07:38:31;16.63;;;3.35;;
22973;SDS011;11653;50.848;4.584;2023-08-21T07:41:04;17.40;;;3.40;;
22973;SDS011;11653;50.848;4.584;2023-08-21T07:43:32;10.20;;;3.00;;
22973;SDS011;11653;50.848;4.584;2023-08-21T07:46:01;13.75;;;2.72;;
22973;SDS011;11653;50.848;4.584;2023-08-21T07:48:30;14.45;;;2.90;;
22973;SDS011;11653;50.848;4.584;2023-08-21T07:50:56;8.88;;;2.65;;
22973;SDS011;11653;50.848;4.584;2023-08-21T07:53:23;15.10;;;2.60;;
22973;SDS011;11653;50.848;4.584;2023-08-21T07:55:49;11.35;;;2.20;;
22973;SDS011;11653;50.848;4.584;2023-08-21T07:58:15;8.18;;;2.22;;
22973;SDS011;11653;50.848;4.584;2023-08-21T08:00:41;11.88;;;2.53;;
22973;SDS011;11653;50.848;4.584;2023-08-21T08:03:08;9.13;;;2.42;;
22973;SDS011;11653;50.848;4.584;2023-08-21T08:05:33;8.20;;;2.00;;
22973;SDS011;11653;50.848;4.584;2023-08-21T08:07:59;11.68;;;3.00;;
22973;SDS011;11653;50.848;4.584;2023-08-21T08:10:25;6.07;;;1.90;;
22973;SDS011;11653;50.848;4.584;2023-08-21T08:12:51;11.73;;;2.40;;
22973;SDS011;11653;50.848;4.584;2023-08-21T08:15:17;10.45;;;2.10;;
22973;SDS011;11653;50.848;4.584;2023-08-21T08:17:43;9.18;;;2.15;;
22973;SDS011;11653;50.848;4.584;2023-08-21T08:20:11;6.05;;;2.22;;
22973;SDS011;11653;50.848;4.584;2023-08-21T08:22:37;15.52;;;2.20;;
22973;SDS011;11653;50.848;4.584;2023-08-21T08:25:03;6.78;;;2.05;;
22973;SDS011;11653;50.848;4.584;2023-08-21T08:27:31;6.65;;;1.90;;
22973;SDS011;11653;50.848;4.584;2023-08-21T08:29:57;9.93;;;1.35;;
22973;SDS011;11653;50.848;4.584;2023-08-21T08:32:23;7.40;;;2.20;;
22973;SDS011;11653;50.848;4.584;2023-08-21T08:34:49;7.85;;;2.38;;
22973;SDS011;11653;50.848;4.584;2023-08-21T08:37:14;6.18;;;2.15;;
22973;SDS011;11653;50.848;4.584;2023-08-21T08:39:40;8.07;;;1.67;;
22973;SDS011;11653;50.848;4.584;2023-08-21T08:42:06;6.22;;;1.95;;
22973;SDS011;11653;50.848;4.584;2023-08-21T08:44:34;10.32;;;2.35;;
22973;SDS011;11653;50.848;4.584;2023-08-21T08:47:02;8.90;;;2.30;;
22973;SDS011;11653;50.848;4.584;2023-08-21T08:49:28;4.28;;;1.42;;
22973;SDS011;11653;50.848;4.584;2023-08-21T08:51:55;7.00;;;1.50;;
22973;SDS011;11653;50.848;4.584;2023-08-21T08:54:23;9.98;;;1.77;;
22973;SDS011;11653;50.848;4.584;2023-08-21T08:56:50;7.93;;;1.55;;
22973;SDS011;11653;50.848;4.584;2023-08-21T08:59:16;10.27;;;2.22;;
22973;SDS011;11653;50.848;4.584;2023-08-21T09:01:41;10.73;;;2.00;;
22973;SDS011;11653;50.848;4.584;2023-08-21T09:04:08;4.32;;;1.38;;
22973;SDS011;11653;50.848;4.584;2023-08-21T09:06:34;5.60;;;1.70;;
22973;SDS011;11653;50.848;4.584;2023-08-21T09:08:59;8.73;;;2.00;;
22973;SDS011;11653;50.848;4.584;2023-08-21T09:11:25;12.52;;;2.50;;
22973;SDS011;11653;50.848;4.584;2023-08-21T09:13:52;6.45;;;1.80;;
22973;SDS011;11653;50.848;4.584;2023-08-21T09:16:20;7.60;;;1.67;;
22973;SDS011;11653;50.848;4.584;2023-08-21T09:18:53;5.65;;;1.50;;
22973;SDS011;11653;50.848;4.584;2023-08-21T09:21:24;7.75;;;1.60;;
22973;SDS011;11653;50.848;4.584;2023-08-21T09:23:59;8.90;;;1.55;;
22973;SDS011;11653;50.848;4.584;2023-08-21T09:26:29;6.38;;;1.55;;
22973;SDS011;11653;50.848;4.584;2023-08-21T09:28:57;8.85;;;1.83;;
22973;SDS011;11653;50.848;4.584;2023-08-21T09:31:31;6.68;;;1.73;;
22973;SDS011;11653;50.848;4.584;2023-08-21T09:34:01;5.35;;;1.50;;
22973;SDS011;11653;50.848;4.584;2023-08-21T09:36:32;7.30;;;1.80;;
22973;SDS011;11653;50.848;4.584;2023-08-21T09:38:58;3.50;;;1.48;;
22973;SDS011;11653;50.848;4.584;2023-08-21T09:41:25;4.38;;;1.10;;
22973;SDS011;11653;50.848;4.584;2023-08-21T09:43:51;7.10;;;1.50;;
22973;SDS011;11653;50.848;4.584;2023-08-21T09:46:17;5.05;;;1.13;;
22973;SDS011;11653;50.848;4.584;2023-08-21T09:48:49;10.40;;;1.30;;
22973;SDS011;11653;50.848;4.584;2023-08-21T09:51:16;5.95;;;1.58;;
22973;SDS011;11653;50.848;4.584;2023-08-21T09:53:42;4.72;;;1.38;;
22973;SDS011;11653;50.848;4.584;2023-08-21T09:56:08;7.78;;;1.42;;
22973;SDS011;11653;50.848;4.584;2023-08-21T09:58:38;6.63;;;1.70;;
22973;SDS011;11653;50.848;4.584;2023-08-21T10:01:07;5.68;;;1.35;;
22973;SDS011;11653;50.848;4.584;2023-08-21T10:03:39;4.88;;;1.48;;
22973;SDS011;11653;50.848;4.584;2023-08-21T10:06:07;4.00;;;1.08;;
22973;SDS011;11653;50.848;4.584;2023-08-21T10:08:36;7.03;;;0.95;;
22973;SDS011;11653;50.848;4.584;2023-08-21T10:11:06;5.38;;;1.05;;
22973;SDS011;11653;50.848;4.584;2023-08-21T10:13:33;7.18;;;1.17;;
22973;SDS011;11653;50.848;4.584;2023-08-21T10:16:02;4.90;;;1.15;;
22973;SDS011;11653;50.848;4.584;2023-08-21T10:18:32;5.40;;;1.23;;
22973;SDS011;11653;50.848;4.584;2023-08-21T10:21:15;6.50;;;1.23;;
22973;SDS011;11653;50.848;4.584;2023-08-21T10:23:42;3.40;;;1.10;;
22973;SDS011;11653;50.848;4.584;2023-08-21T10:26:15;4.72;;;1.02;;
22973;SDS011;11653;50.848;4.584;2023-08-21T10:28:49;2.80;;;0.80;;
22973;SDS011;11653;50.848;4.584;2023-08-21T10:34:04;4.47;;;1.10;;
22973;SDS011;11653;50.848;4.584;2023-08-21T10:39:16;5.72;;;0.88;;
22973;SDS011;11653;50.848;4.584;2023-08-21T10:42:33;5.15;;;1.23;;
22973;SDS011;11653;50.848;4.584;2023-08-21T10:49:47;3.45;;;1.13;;
22973;SDS011;11653;50.848;4.584;2023-08-21T10:52:19;3.92;;;0.85;;
22973;SDS011;11653;50.848;4.584;2023-08-21T10:54:48;4.10;;;1.05;;
22973;SDS011;11653;50.848;4.584;2023-08-21T10:57:15;3.63;;;1.00;;
22973;SDS011;11653;50.848;4.584;2023-08-21T10:59:51;5.10;;;1.40;;
22973;SDS011;11653;50.848;4.584;2023-08-21T11:02:18;5.40;;;1.20;;
22973;SDS011;11653;50.848;4.584;2023-08-21T11:04:44;4.95;;;1.23;;
22973;SDS011;11653;50.848;4.584;2023-08-21T11:07:10;4.82;;;1.13;;
22973;SDS011;11653;50.848;4.584;2023-08-21T11:09:37;2.95;;;0.98;;
22973;SDS011;11653;50.848;4.584;2023-08-21T11:12:06;4.80;;;1.20;;
22973;SDS011;11653;50.848;4.584;2023-08-21T11:14:33;3.55;;;1.00;;
22973;SDS011;11653;50.848;4.584;2023-08-21T11:17:00;3.67;;;1.33;;
22973;SDS011;11653;50.848;4.584;2023-08-21T11:19:26;2.90;;;0.80;;
22973;SDS011;11653;50.848;4.584;2023-08-21T11:21:51;4.97;;;1.10;;
22973;SDS011;11653;50.848;4.584;2023-08-21T11:24:17;3.40;;;0.95;;
22973;SDS011;11653;50.848;4.584;2023-08-21T11:26:43;4.00;;;1.10;;
22973;SDS011;11653;50.848;4.584;2023-08-21T11:29:08;4.32;;;1.00;;
22973;SDS011;11653;50.848;4.584;2023-08-21T11:31:34;3.47;;;0.60;;
22973;SDS011;11653;50.848;4.584;2023-08-21T11:34:00;2.75;;;0.70;;
22973;SDS011;11653;50.848;4.584;2023-08-21T11:36:25;4.20;;;0.90;;
22973;SDS011;11653;50.848;4.584;2023-08-21T11:38:58;8.75;;;1.33;;
22973;SDS011;11653;50.848;4.584;2023-08-21T11:41:32;5.35;;;1.15;;
22973;SDS011;11653;50.848;4.584;2023-08-21T11:44:17;7.70;;;1.50;;
22973;SDS011;11653;50.848;4.584;2023-08-21T11:46:42;3.70;;;1.58;;
22973;SDS011;11653;50.848;4.584;2023-08-21T11:49:08;4.70;;;1.33;;
22973;SDS011;11653;50.848;4.584;2023-08-21T11:51:40;4.63;;;1.20;;
22973;SDS011;11653;50.848;4.584;2023-08-21T11:54:06;5.97;;;1.50;;
22973;SDS011;11653;50.848;4.584;2023-08-21T11:56:31;4.50;;;0.98;;
22973;SDS011;11653;50.848;4.584;2023-08-21T11:58:57;6.57;;;1.20;;
22973;SDS011;11653;50.848;4.584;2023-08-21T12:01:26;6.47;;;1.35;;
22973;SDS011;11653;50.848;4.584;2023-08-21T12:03:51;7.32;;;1.52;;
22973;SDS011;11653;50.848;4.584;2023-08-21T12:06:20;4.53;;;1.27;;
22973;SDS011;11653;50.848;4.584;2023-08-21T12:08:47;10.73;;;1.38;;
22973;SDS011;11653;50.848;4.584;2023-08-21T12:11:12;4.93;;;1.23;;
22973;SDS011;11653;50.848;4.584;2023-08-21T12:13:38;5.97;;;1.20;;
22973;SDS011;11653;50.848;4.584;2023-08-21T12:16:04;4.13;;;1.23;;
22973;SDS011;11653;50.848;4.584;2023-08-21T12:18:29;3.42;;;0.70;;
22973;SDS011;11653;50.848;4.584;2023-08-21T12:20:55;6.05;;;1.02;;
22973;SDS011;11653;50.848;4.584;2023-08-21T12:23:21;3.53;;;0.90;;
22973;SDS011;11653;50.848;4.584;2023-08-21T12:25:47;5.40;;;1.23;;
22973;SDS011;11653;50.848;4.584;2023-08-21T12:28:12;4.20;;;1.02;;
22973;SDS011;11653;50.848;4.584;2023-08-21T12:30:38;2.97;;;1.10;;
22973;SDS011;11653;50.848;4.584;2023-08-21T12:33:04;4.22;;;1.10;;
22973;SDS011;11653;50.848;4.584;2023-08-21T12:35:29;6.90;;;1.90;;
22973;SDS011;11653;50.848;4.584;2023-08-21T12:37:56;3.33;;;1.10;;
22973;SDS011;11653;50.848;4.584;2023-08-21T12:40:23;7.50;;;1.50;;
22973;SDS011;11653;50.848;4.584;2023-08-21T12:42:49;4.75;;;1.48;;
22973;SDS011;11653;50.848;4.584;2023-08-21T12:45:15;4.45;;;1.27;;
22973;SDS011;11653;50.848;4.584;2023-08-21T12:47:42;4.22;;;1.38;;
22973;SDS011;11653;50.848;4.584;2023-08-21T12:50:07;4.22;;;1.27;;
22973;SDS011;11653;50.848;4.584;2023-08-21T12:52:33;5.72;;;1.35;;
22973;SDS011;11653;50.848;4.584;2023-08-21T12:54:59;4.20;;;1.23;;
22973;SDS011;11653;50.848;4.584;2023-08-21T12:57:28;6.75;;;1.42;;
22973;SDS011;11653;50.848;4.584;2023-08-21T12:59:54;4.35;;;1.50;;
22973;SDS011;11653;50.848;4.584;2023-08-21T13:02:19;9.48;;;1.42;;
22973;SDS011;11653;50.848;4.584;2023-08-21T13:04:45;6.18;;;1.23;;
22973;SDS011;11653;50.848;4.584;2023-08-21T13:07:10;7.30;;;1.48;;
22973;SDS011;11653;50.848;4.584;2023-08-21T13:09:36;5.90;;;1.50;;
22973;SDS011;11653;50.848;4.584;2023-08-21T13:12:02;4.63;;;1.63;;
22973;SDS011;11653;50.848;4.584;2023-08-21T13:14:28;5.18;;;1.63;;
22973;SDS011;11653;50.848;4.584;2023-08-21T13:16:53;11.55;;;1.90;;
22973;SDS011;11653;50.848;4.584;2023-08-21T13:19:19;4.93;;;1.67;;
22973;SDS011;11653;50.848;4.584;2023-08-21T13:21:45;6.65;;;1.90;;
22973;SDS011;11653;50.848;4.584;2023-08-21T13:24:10;7.38;;;1.55;;
22973;SDS011;11653;50.848;4.584;2023-08-21T13:26:36;9.30;;;2.03;;
22973;SDS011;11653;50.848;4.584;2023-08-21T13:29:02;3.80;;;1.60;;
22973;SDS011;11653;50.848;4.584;2023-08-21T13:31:27;5.75;;;1.60;;
22973;SDS011;11653;50.848;4.584;2023-08-21T13:33:54;5.80;;;1.50;;
22973;SDS011;11653;50.848;4.584;2023-08-21T13:36:19;4.10;;;1.67;;
22973;SDS011;11653;50.848;4.584;2023-08-21T13:38:46;5.05;;;1.60;;
22973;SDS011;11653;50.848;4.584;2023-08-21T13:41:12;6.57;;;1.50;;
22973;SDS011;11653;50.848;4.584;2023-08-21T13:43:38;3.63;;;1.50;;
22973;SDS011;11653;50.848;4.584;2023-08-21T13:46:04;4.93;;;1.50;;
22973;SDS011;11653;50.848;4.584;2023-08-21T13:48:32;6.20;;;1.50;;
22973;SDS011;11653;50.848;4.584;2023-08-21T13:50:58;7.05;;;1.50;;
22973;SDS011;11653;50.848;4.584;2023-08-21T13:53:24;8.98;;;2.20;;
22973;SDS011;11653;50.848;4.584;2023-08-21T13:55:50;6.25;;;1.98;;
22973;SDS011;11653;50.848;4.584;2023-08-21T13:58:16;4.55;;;1.60;;
22973;SDS011;11653;50.848;4.584;2023-08-21T14:00:42;5.30;;;1.73;;
22973;SDS011;11653;50.848;4.584;2023-08-21T14:03:09;6.00;;;1.60;;
22973;SDS011;11653;50.848;4.584;2023-08-21T14:05:35;5.68;;;1.63;;
22973;SDS011;11653;50.848;4.584;2023-08-21T14:08:01;5.38;;;1.77;;
22973;SDS011;11653;50.848;4.584;2023-08-21T14:10:27;2.40;;;1.40;;
22973;SDS011;11653;50.848;4.584;2023-08-21T14:12:54;7.28;;;1.70;;
22973;SDS011;11653;50.848;4.584;2023-08-21T14:15:21;3.15;;;1.50;;
22973;SDS011;11653;50.848;4.584;2023-08-21T14:17:47;5.90;;;1.55;;
22973;SDS011;11653;50.848;4.584;2023-08-21T14:20:14;3.45;;;1.23;;
22973;SDS011;11653;50.848;4.584;2023-08-21T14:22:41;4.53;;;1.15;;
22973;SDS011;11653;50.848;4.584;2023-08-21T14:25:06;5.10;;;2.25;;
22973;SDS011;11653;50.848;4.584;2023-08-21T14:27:32;5.95;;;1.70;;
22973;SDS011;11653;50.848;4.584;2023-08-21T14:29:58;6.80;;;1.88;;
22973;SDS011;11653;50.848;4.584;2023-08-21T14:32:25;5.32;;;1.63;;
22973;SDS011;11653;50.848;4.584;2023-08-21T14:34:51;5.13;;;1.42;;
22973;SDS011;11653;50.848;4.584;2023-08-21T14:37:20;9.07;;;1.95;;
22973;SDS011;11653;50.848;4.584;2023-08-21T14:39:48;3.80;;;1.50;;
22973;SDS011;11653;50.848;4.584;2023-08-21T14:42:14;4.30;;;1.55;;
22973;SDS011;11653;50.848;4.584;2023-08-21T14:44:40;8.48;;;1.60;;
22973;SDS011;11653;50.848;4.584;2023-08-21T14:47:06;12.75;;;2.50;;
22973;SDS011;11653;50.848;4.584;2023-08-21T14:49:32;7.22;;;1.50;;
22973;SDS011;11653;50.848;4.584;2023-08-21T14:51:57;4.07;;;1.27;;
22973;SDS011;11653;50.848;4.584;2023-08-21T14:54:23;2.58;;;1.30;;
22973;SDS011;11653;50.848;4.584;2023-08-21T14:56:49;5.38;;;1.52;;
22973;SDS011;11653;50.848;4.584;2023-08-21T14:59:15;4.65;;;1.85;;